Time;durP1;ratioP1;P1;durP2;ratioP2;P2;SDS_P1;SDS_P2;PMS_P1;PMS_P2;Temp;Humidity;BMP_temperature;BMP_pressure;BME280_temperature;BME280_humidity;BME280_pressure;Samples;Min_cycle;Max_cycle;Signal;HPM_P1;HPM_P2
2023/03/09 00:01:28;;;;;;;3.40;2.80;;;;;;;-142.70;100.00;60390.16;4888043;29;20039;-83
2023/03/09 00:03:54;;;;;;;3.67;2.90;;;;;;;-142.70;100.00;60390.16;4872306;29;20015;-83
2023/03/09 00:06:20;;;;;;;5.07;3.22;;;;;;;-142.70;100.00;60390.16;4887936;29;20017;-83
2023/03/09 00:08:46;;;;;;;6.90;3.47;;;;;;;-142.70;100.00;60390.16;4871927;29;20020;-83
2023/03/09 00:11:13;;;;;;;5.88;3.70;;;;;;;-142.70;100.00;60390.16;4887371;29;20021;-83
2023/03/09 00:13:38;;;;;;;6.70;3.47;;;;;;;-142.70;100.00;60390.16;4903099;29;20025;-84
2023/03/09 00:16:11;;;;;;;9.48;3.08;;;;;;;-142.70;100.00;60390.16;4904064;29;20033;-83
2023/03/09 00:18:37;;;;;;;5.43;3.35;;;;;;;-142.70;100.00;60390.16;4903428;29;20081;-83
2023/03/09 00:21:03;;;;;;;5.00;3.10;;;;;;;-142.70;100.00;60390.16;4902222;29;20025;-83
2023/03/09 00:23:29;;;;;;;4.15;3.50;;;;;;;-142.70;100.00;60390.16;4903066;29;20030;-84
2023/03/09 00:25:54;;;;;;;6.53;3.30;;;;;;;-142.70;100.00;60390.16;4872800;29;20033;-83
2023/03/09 00:28:20;;;;;;;6.85;3.55;;;;;;;-142.70;100.00;60390.16;4904318;29;20033;-84
2023/03/09 00:43:42;;;;;;;9.60;4.10;;;;;;;-142.70;100.00;60390.16;5746165;23;20019;-80
2023/03/09 00:46:07;;;;;;;9.25;4.80;;;;;;;-142.70;100.00;60390.16;4942774;29;20076;-83
2023/03/09 00:48:36;;;;;;;41.35;19.35;;;;;;;-142.70;100.00;60390.16;4927710;29;20023;-84
2023/03/09 00:51:02;;;;;;;12.13;7.38;;;;;;;-142.70;100.00;60390.16;4944381;29;20040;-84
2023/03/09 00:53:27;;;;;;;7.68;5.45;;;;;;;-142.70;100.00;60390.16;4928355;29;20024;-85
2023/03/09 00:55:53;;;;;;;6.78;4.40;;;;;;;-142.70;100.00;60390.16;4957008;29;20023;-85
2023/03/09 00:58:18;;;;;;;5.53;3.75;;;;;;;-142.70;100.00;60390.16;4960149;29;20084;-84
2023/03/09 01:00:44;;;;;;;7.43;4.65;;;;;;;-142.70;100.00;60390.16;4928120;29;20007;-86
2023/03/09 01:03:10;;;;;;;9.48;4.43;;;;;;;-142.70;100.00;60390.16;4959577;29;20038;-85
2023/03/09 01:05:37;;;;;;;6.18;4.13;;;;;;;-142.70;100.00;60390.16;4956781;29;20018;-85
2023/03/09 01:08:03;;;;;;;6.75;4.22;;;;;;;-142.70;100.00;60390.16;4958630;29;20055;-86
2023/03/09 01:10:28;;;;;;;5.35;4.20;;;;;;;-142.70;100.00;60390.16;4943594;29;20019;-85
2023/03/09 01:12:55;;;;;;;5.82;4.13;;;;;;;-142.70;100.00;60390.16;4960363;29;20108;-86
2023/03/09 01:15:21;;;;;;;5.60;4.18;;;;;;;-142.70;100.00;60390.16;4960673;29;20060;-87
2023/03/09 01:17:47;;;;;;;5.35;4.57;;;;;;;-142.70;100.00;60390.16;4944565;29;20008;-87
2023/03/09 01:25:23;;;;;;;6.65;5.15;;;;;;;-142.70;100.00;60390.16;5604330;23;20053;-83
2023/03/09 01:35:34;;;;;;;9.45;5.55;;;;;;;-142.70;100.00;60390.16;5780245;23;20039;-83
2023/03/09 01:38:00;;;;;;;11.57;5.85;;;;;;;-142.70;100.00;60390.16;4943592;29;20083;-83
2023/03/09 01:40:27;;;;;;;7.13;5.35;;;;;;;-142.70;100.00;60390.16;4958606;29;20036;-81
2023/03/09 01:43:21;;;;;;;7.65;5.40;;;;;;;-142.70;100.00;60390.16;4926729;29;20008;-82
2023/03/09 01:45:47;;;;;;;11.07;5.47;;;;;;;-142.70;100.00;60390.16;4941577;29;20035;-81
2023/03/09 01:48:12;;;;;;;7.90;5.70;;;;;;;-142.70;100.00;60390.16;4958434;29;20039;-82
2023/03/09 01:50:38;;;;;;;8.05;6.15;;;;;;;-142.70;100.00;60390.16;4925560;29;20043;-82
2023/03/09 01:53:09;;;;;;;6.72;5.15;;;;;;;-142.70;100.00;60390.16;4957238;29;20038;-82
2023/03/09 01:55:42;;;;;;;9.00;5.68;;;;;;;-142.70;100.00;60390.16;4941761;29;20024;-82
2023/03/09 01:58:15;;;;;;;10.55;6.03;;;;;;;-142.70;100.00;60390.16;4951680;29;20030;-83
2023/03/09 02:00:44;;;;;;;7.15;5.43;;;;;;;-142.70;100.00;60390.16;4954461;29;20034;-82
2023/03/09 02:03:30;;;;;;;9.27;4.93;;;;;;;-142.70;100.00;60390.16;4976418;29;20087;-82
2023/03/09 02:06:02;;;;;;;9.05;5.00;;;;;;;-142.70;100.00;60390.16;4955104;29;20268;-81
2023/03/09 02:08:30;;;;;;;10.00;5.82;;;;;;;-142.70;100.00;60390.16;4966691;29;20055;-81
2023/03/09 02:11:05;;;;;;;7.28;5.47;;;;;;;-142.70;100.00;60390.16;4966841;29;20024;-82
2023/03/09 02:13:37;;;;;;;8.75;5.63;;;;;;;-142.70;100.00;60390.16;4933718;29;20028;-82
2023/03/09 02:16:02;;;;;;;11.68;5.35;;;;;;;-142.70;100.00;60390.16;4947701;29;20517;-82
2023/03/09 02:18:28;;;;;;;6.90;5.28;;;;;;;-142.70;100.00;60390.16;4953366;29;20047;-82
2023/03/09 02:21:03;;;;;;;5.50;4.93;;;;;;;-142.70;100.00;60390.16;4945729;29;20058;-82
2023/03/09 02:23:41;;;;;;;9.88;6.07;;;;;;;-142.70;100.00;60390.16;4959092;29;20035;-82
2023/03/09 02:26:25;;;;;;;9.23;5.38;;;;;;;-142.70;100.00;60390.16;4955327;29;20039;-81
2023/03/09 02:28:51;;;;;;;11.63;7.55;;;;;;;-142.70;100.00;60390.16;4944334;29;20020;-82
2023/03/09 02:31:17;;;;;;;9.45;7.47;;;;;;;-142.70;100.00;60390.16;4976562;29;20031;-82
2023/03/09 02:33:43;;;;;;;11.05;7.40;;;;;;;-142.70;100.00;60390.16;4946621;29;20030;-81
2023/03/09 02:36:08;;;;;;;9.75;5.38;;;;;;;-142.70;100.00;60390.16;4955321;29;20076;-82
2023/03/09 02:38:34;;;;;;;7.05;5.03;;;;;;;-142.70;100.00;60390.16;4944312;29;20019;-81
2023/03/09 02:41:01;;;;;;;8.63;4.85;;;;;;;-142.70;100.00;60390.16;4944232;29;20050;-81
2023/03/09 02:43:34;;;;;;;6.65;4.82;;;;;;;-142.70;100.00;60390.16;4945203;29;20028;-83
2023/03/09 02:45:59;;;;;;;7.00;5.40;;;;;;;-142.70;100.00;60390.16;5378848;23;20015;-82
2023/03/09 02:48:25;;;;;;;6.95;4.50;;;;;;;-142.70;100.00;60390.16;5073842;23;20146;-79
2023/03/09 02:53:36;;;;;;;7.88;4.93;;;;;;;-142.70;100.00;60390.16;4941574;29;20033;-82
2023/03/09 03:01:12;;;;;;;9.48;6.00;;;;;;;-142.70;100.00;60390.16;5420178;23;20054;-83
2023/03/09 03:03:37;;;;;;;9.02;5.90;;;;;;;-142.70;100.00;60390.16;5234157;23;20131;-83
2023/03/09 03:06:03;;;;;;;7.28;6.55;;;;;;;-142.70;100.00;60390.16;4962834;29;20104;-82
2023/03/09 03:08:30;;;;;;;11.30;6.00;;;;;;;-142.70;100.00;60390.16;4947084;29;20119;-82
2023/03/09 03:10:56;;;;;;;6.03;5.22;;;;;;;-142.70;100.00;60390.16;5209457;23;20083;-82
2023/03/09 03:18:32;;;;;;;9.15;5.28;;;;;;;-142.70;100.00;60390.16;5255200;23;20071;-83
2023/03/09 03:20:58;;;;;;;5.70;4.80;;;;;;;-142.70;100.00;60390.16;4948805;29;20051;-84
2023/03/09 03:23:23;;;;;;;6.53;4.72;;;;;;;-142.70;100.00;60390.16;4949310;29;20020;-84
2023/03/09 03:25:49;;;;;;;5.93;5.15;;;;;;;-142.70;100.00;60390.16;4965971;28;20028;-84
2023/03/09 03:28:15;;;;;;;9.10;5.05;;;;;;;-142.70;100.00;60390.16;4981484;28;20042;-83
2023/03/09 03:30:41;;;;;;;5.10;4.60;;;;;;;-142.70;100.00;60390.16;4969629;28;20112;-83
2023/03/09 03:33:06;;;;;;;7.93;4.63;;;;;;;-142.70;100.00;60390.16;4961963;29;20039;-83
2023/03/09 03:35:32;;;;;;;7.15;4.50;;;;;;;-142.70;100.00;60390.16;4962060;29;20087;-83
2023/03/09 03:37:58;;;;;;;8.95;5.18;;;;;;;-142.70;100.00;60390.16;4963864;29;20084;-83
2023/03/09 03:40:24;;;;;;;8.55;4.70;;;;;;;-142.70;100.00;60390.16;4945665;29;20039;-82
2023/03/09 03:42:49;;;;;;;7.55;4.70;;;;;;;-142.70;100.00;60390.16;4962076;29;20054;-83
2023/03/09 03:45:15;;;;;;;6.53;4.53;;;;;;;-142.70;100.00;60390.16;4962159;29;20036;-82
2023/03/09 03:47:41;;;;;;;7.93;4.50;;;;;;;-142.70;100.00;60390.16;4962799;29;20039;-83
2023/03/09 03:52:42;;;;;;;8.15;5.43;;;;;;;-142.70;100.00;60390.16;5110482;23;20075;-85
2023/03/09 03:55:07;;;;;;;8.23;4.05;;;;;;;-142.70;100.00;60390.16;4964572;29;20051;-81
2023/03/09 03:57:33;;;;;;;10.38;5.85;;;;;;;-142.70;100.00;60390.16;5089453;23;20045;-83
2023/03/09 03:59:59;;;;;;;20.50;10.80;;;;;;;-142.70;100.00;60390.16;5106512;23;20059;-83
2023/03/09 04:02:25;;;;;;;35.72;17.67;;;;;;;-142.70;100.00;60390.16;4925318;29;20036;-83
2023/03/09 04:04:51;;;;;;;52.42;28.13;;;;;;;-142.70;100.00;60390.16;4941180;29;20047;-83
2023/03/09 04:07:16;;;;;;;37.65;24.70;;;;;;;-142.70;100.00;60390.16;4940924;29;20072;-83
2023/03/09 04:09:43;;;;;;;14.48;11.30;;;;;;;-142.70;100.00;60390.16;4941731;29;20040;-83
2023/03/09 04:12:08;;;;;;;9.35;5.30;;;;;;;-142.70;100.00;60390.16;4941736;29;20024;-82
2023/03/09 04:14:34;;;;;;;5.53;4.07;;;;;;;-142.70;100.00;60390.16;4925898;29;20036;-83
2023/03/09 04:17:00;;;;;;;4.28;3.78;;;;;;;-142.70;100.00;60390.16;4942157;29;20056;-83
2023/03/09 04:19:26;;;;;;;5.03;3.95;;;;;;;-142.70;100.00;60390.16;4941674;29;20035;-84
2023/03/09 04:21:52;;;;;;;4.28;3.88;;;;;;;-142.70;100.00;60390.16;4925251;29;20014;-85
2023/03/09 04:24:17;;;;;;;5.47;3.65;;;;;;;-142.70;100.00;60390.16;4925804;29;20060;-85
2023/03/09 04:26:43;;;;;;;6.32;4.03;;;;;;;-142.70;100.00;60390.16;4941448;29;20028;-84
2023/03/09 04:29:08;;;;;;;6.63;4.30;;;;;;;-142.70;100.00;60390.16;4941986;29;20004;-85
2023/03/09 04:31:34;;;;;;;6.00;3.42;;;;;;;-142.70;100.00;60390.16;4940975;29;20040;-84
2023/03/09 04:34:00;;;;;;;9.30;4.20;;;;;;;-142.70;100.00;60390.16;4941516;29;20032;-84
2023/03/09 04:36:26;;;;;;;4.13;3.65;;;;;;;-142.70;100.00;60390.16;4941354;29;20020;-84
2023/03/09 04:38:52;;;;;;;9.50;7.13;;;;;;;-142.70;100.00;60390.16;4925314;29;20008;-85
2023/03/09 04:43:53;;;;;;;6.20;4.85;;;;;;;-142.70;100.00;60390.16;5100559;23;20055;-84
2023/03/09 04:46:18;;;;;;;5.55;4.13;;;;;;;-142.70;100.00;60390.16;4980076;23;20052;-83
2023/03/09 04:48:44;;;;;;;4.10;3.70;;;;;;;-142.70;100.00;60390.16;4940533;29;20028;-83
2023/03/09 04:51:10;;;;;;;9.57;4.15;;;;;;;-142.70;100.00;60390.16;4941394;29;20095;-84
2023/03/09 04:53:35;;;;;;;4.93;4.03;;;;;;;-142.70;100.00;60390.16;4942467;29;20016;-83
2023/03/09 04:58:36;;;;;;;5.57;4.38;;;;;;;-142.70;100.00;60390.16;5713816;23;20965;-82
2023/03/09 05:01:02;;;;;;;4.20;3.60;;;;;;;-142.70;100.00;60390.16;5203835;23;20132;-83
2023/03/09 05:03:28;;;;;;;5.43;4.05;;;;;;;-142.70;100.00;60390.16;4917836;29;20032;-83
2023/03/09 05:05:54;;;;;;;4.65;4.18;;;;;;;-142.70;100.00;60390.16;5094294;24;20063;-83
2023/03/09 05:08:20;;;;;;;5.68;4.38;;;;;;;-142.70;100.00;60390.16;4917042;29;20104;-83
2023/03/09 05:10:45;;;;;;;5.60;3.92;;;;;;;-142.70;100.00;60390.16;4931394;29;20032;-83
2023/03/09 05:13:12;;;;;;;6.25;4.35;;;;;;;-142.70;100.00;60390.16;4933467;29;20048;-83
2023/03/09 05:15:39;;;;;;;9.07;4.75;;;;;;;-142.70;100.00;60390.16;4931576;29;20027;-83
2023/03/09 05:18:05;;;;;;;10.18;6.38;;;;;;;-142.70;100.00;60390.16;4932437;29;20052;-83
2023/03/09 05:20:31;;;;;;;11.77;7.43;;;;;;;-142.70;100.00;60390.16;4931981;29;20065;-83
2023/03/09 05:22:57;;;;;;;9.75;6.97;;;;;;;-142.70;100.00;60390.16;4932801;29;20059;-83
2023/03/09 05:25:23;;;;;;;11.68;8.05;;;;;;;-142.70;100.00;60390.16;4932340;29;20495;-85
2023/03/09 05:27:49;;;;;;;9.30;6.43;;;;;;;-142.70;100.00;60390.16;4932803;29;20031;-83
2023/03/09 05:30:15;;;;;;;7.18;6.05;;;;;;;-142.70;100.00;60390.16;4932236;29;20065;-83
2023/03/09 05:35:18;;;;;;;9.13;7.28;;;;;;;-142.70;100.00;60390.16;5715689;23;20552;-85
2023/03/09 05:37:44;;;;;;;5.90;4.38;;;;;;;-142.70;100.00;60390.16;4935723;29;20031;-83
2023/03/09 05:42:42;;;;;;;14.30;11.23;;;;;;;-142.70;100.00;60390.16;5077501;23;20060;-84
2023/03/09 05:45:08;;;;;;;14.07;12.10;;;;;;;-142.70;100.00;60390.16;4944065;29;20075;-85
2023/03/09 05:50:10;;;;;;;9.93;8.93;;;;;;;-142.70;100.00;60390.16;5627041;23;20067;-88
2023/03/09 05:52:35;;;;;;;7.43;6.72;;;;;;;-142.70;100.00;60390.16;4906830;29;20035;-89
2023/03/09 05:55:00;;;;;;;9.05;8.25;;;;;;;-142.70;100.00;60390.16;4907646;29;20027;-85
2023/03/09 05:57:26;;;;;;;6.95;6.03;;;;;;;-142.70;100.00;60390.16;4928015;29;20027;-86
2023/03/09 05:59:51;;;;;;;6.18;4.95;;;;;;;-142.70;100.00;60390.16;4922991;29;20108;-86
2023/03/09 06:02:17;;;;;;;9.25;6.45;;;;;;;-142.70;100.00;60390.16;4940731;29;20455;-86
2023/03/09 06:04:42;;;;;;;11.25;6.82;;;;;;;-142.70;100.00;60390.16;4943440;29;21212;-86
2023/03/09 06:07:08;;;;;;;7.57;6.88;;;;;;;-142.70;100.00;60390.16;4937469;28;20707;-86
2023/03/09 06:09:33;;;;;;;5.15;4.65;;;;;;;-142.70;100.00;60390.16;4934028;29;20035;-86
2023/03/09 06:11:58;;;;;;;5.35;4.13;;;;;;;-142.70;100.00;60390.16;4932721;29;20122;-86
2023/03/09 06:14:24;;;;;;;5.97;4.28;;;;;;;-142.70;100.00;60390.16;4941535;29;20085;-86
2023/03/09 06:16:49;;;;;;;11.25;3.75;;;;;;;-142.70;100.00;60390.16;4943543;29;20031;-88
2023/03/09 06:19:15;;;;;;;3.72;3.42;;;;;;;-142.70;100.00;60390.16;4935340;29;20492;-89
2023/03/09 06:21:40;;;;;;;4.10;3.72;;;;;;;-142.70;100.00;60390.16;4937992;29;20118;-89
2023/03/09 06:24:06;;;;;;;5.75;3.20;;;;;;;-142.70;100.00;60390.16;4942379;29;20102;-88
2023/03/09 06:29:06;;;;;;;3.38;2.83;;;;;;;-142.70;100.00;60390.16;5835380;23;20205;-87
2023/03/09 06:31:32;;;;;;;3.45;3.13;;;;;;;-142.70;100.00;60390.16;4886462;29;20041;-89
2023/03/09 06:33:57;;;;;;;10.32;8.07;;;;;;;-142.70;100.00;60390.16;4879455;29;20033;-91
2023/03/09 06:36:24;;;;;;;13.23;8.48;;;;;;;-142.70;100.00;60390.16;4879883;29;20828;-86
2023/03/09 06:38:50;;;;;;;3.83;3.03;;;;;;;-142.70;100.00;60390.16;4900598;29;20486;-86
2023/03/09 06:41:15;;;;;;;6.10;3.50;;;;;;;-142.70;100.00;60390.16;4882647;29;20073;-89
2023/03/09 06:46:16;;;;;;;4.30;3.63;;;;;;;-142.70;100.00;60390.16;5549301;23;20056;-86
2023/03/09 06:54:05;;;;;;;4.28;3.00;;;;;;;-142.70;100.00;60390.16;5550648;23;20088;-81
2023/03/09 06:59:06;;;;;;;4.10;2.90;;;;;;;-142.70;100.00;60390.16;5186430;23;20478;-85
2023/03/09 07:01:33;;;;;;;3.20;2.85;;;;;;;-142.70;100.00;60390.16;4900737;29;20035;-86
2023/03/09 07:03:59;;;;;;;4.10;3.70;;;;;;;-142.70;100.00;60390.16;4894253;29;20071;-87
2023/03/09 07:06:24;;;;;;;4.53;3.35;;;;;;;-142.70;100.00;60390.16;4895327;29;20067;-87
2023/03/09 07:08:49;;;;;;;5.50;2.85;;;;;;;-142.70;100.00;60390.16;4907704;29;20032;-89
2023/03/09 07:11:15;;;;;;;3.80;2.90;;;;;;;-142.70;100.00;60390.16;4906907;29;20051;-86
2023/03/09 07:13:41;;;;;;;2.78;2.58;;;;;;;-142.70;100.00;60390.16;4906462;29;20035;-86
2023/03/09 07:16:07;;;;;;;2.85;2.47;;;;;;;-142.70;100.00;60390.16;4908332;29;20020;-85
2023/03/09 07:18:32;;;;;;;4.20;2.85;;;;;;;-142.70;100.00;60390.16;4886659;29;20460;-86
2023/03/09 07:21:00;;;;;;;5.25;3.03;;;;;;;-142.70;100.00;60390.16;4888849;29;20522;-84
2023/03/09 07:23:27;;;;;;;3.60;2.70;;;;;;;-142.70;100.00;60390.16;4906427;29;20067;-84
2023/03/09 07:25:52;;;;;;;4.25;2.90;;;;;;;-142.70;100.00;60390.16;4900320;29;20138;-86
2023/03/09 07:28:18;;;;;;;5.10;2.75;;;;;;;-142.70;100.00;60390.16;4889190;29;20679;-85
2023/03/09 07:30:43;;;;;;;2.80;2.60;;;;;;;-142.70;100.00;60390.16;4890573;29;20051;-87
2023/03/09 07:33:09;;;;;;;2.72;2.50;;;;;;;-142.70;100.00;60390.16;4906635;29;20081;-83
2023/03/09 07:35:38;;;;;;;4.63;3.03;;;;;;;-142.70;100.00;60390.16;4905552;29;20041;-79
2023/03/09 07:38:03;;;;;;;4.47;3.05;;;;;;;-142.70;100.00;60390.16;4894613;29;20036;-80
2023/03/09 07:40:29;;;;;;;3.63;2.30;;;;;;;-142.70;100.00;60390.16;4875339;29;20055;-83
2023/03/09 07:42:54;;;;;;;2.88;2.50;;;;;;;-142.70;100.00;60390.16;4900001;29;20204;-83
2023/03/09 07:45:21;;;;;;;5.18;2.72;;;;;;;-142.70;100.00;60390.16;4894955;29;20021;-83
2023/03/09 07:47:47;;;;;;;6.05;2.80;;;;;;;-142.70;100.00;60390.16;4889225;29;20054;-86
2023/03/09 07:50:13;;;;;;;3.10;2.80;;;;;;;-142.70;100.00;60390.16;4890062;29;20494;-85
2023/03/09 07:52:38;;;;;;;4.60;2.80;;;;;;;-142.70;100.00;60390.16;4889482;29;20036;-85
2023/03/09 07:55:07;;;;;;;4.43;2.72;;;;;;;-142.70;100.00;60390.16;4906266;29;20083;-80
2023/03/09 07:57:33;;;;;;;3.43;2.60;;;;;;;-142.70;100.00;60390.16;4903056;29;20087;-81
2023/03/09 08:00:11;;;;;;;4.80;2.97;;;;;;;-142.70;100.00;60390.16;4881047;29;20289;-86
2023/03/09 08:02:36;;;;;;;4.22;2.72;;;;;;;-142.70;100.00;60390.16;4890635;29;20107;-83
2023/03/09 08:05:07;;;;;;;4.50;2.72;;;;;;;-142.70;100.00;60390.16;4885777;29;20115;-81
2023/03/09 08:07:34;;;;;;;3.78;2.50;;;;;;;-142.70;100.00;60390.16;4907751;29;20056;-84
2023/03/09 08:10:01;;;;;;;3.55;3.25;;;;;;;-142.70;100.00;60390.16;4886304;29;20526;-80
2023/03/09 08:12:27;;;;;;;5.93;2.95;;;;;;;-142.70;100.00;60390.16;4888116;29;20126;-81
2023/03/09 08:14:52;;;;;;;3.92;3.15;;;;;;;-142.70;100.00;60390.16;4895990;29;20044;-80
2023/03/09 08:17:18;;;;;;;3.28;2.97;;;;;;;-142.70;100.00;60390.16;4887742;29;20039;-81
2023/03/09 08:19:44;;;;;;;4.88;3.25;;;;;;;-142.70;100.00;60390.16;4880533;29;20032;-79
2023/03/09 08:22:10;;;;;;;3.40;2.83;;;;;;;-142.70;100.00;60390.16;4900687;29;20691;-81
2023/03/09 08:24:35;;;;;;;3.35;2.63;;;;;;;-142.70;100.00;60390.16;4887042;29;20132;-81
2023/03/09 08:27:01;;;;;;;4.10;2.88;;;;;;;-142.70;100.00;60390.16;4917175;29;20047;-81
2023/03/09 08:29:26;;;;;;;3.75;2.65;;;;;;;-142.70;100.00;60390.16;4876798;29;20028;-81
2023/03/09 08:31:52;;;;;;;3.17;2.60;;;;;;;-142.70;100.00;60390.16;4901287;29;20453;-80
2023/03/09 08:34:19;;;;;;;3.42;2.55;;;;;;;-142.70;100.00;60390.16;4882566;29;20371;-80
2023/03/09 08:36:45;;;;;;;4.68;2.75;;;;;;;-142.70;100.00;60390.16;4871726;29;20043;-80
2023/03/09 08:39:10;;;;;;;3.15;2.70;;;;;;;-142.70;100.00;60390.16;4889260;29;20028;-80
2023/03/09 08:41:37;;;;;;;3.28;2.72;;;;;;;-142.70;100.00;60390.16;4904983;29;20047;-80
2023/03/09 08:44:03;;;;;;;3.10;2.40;;;;;;;-142.70;100.00;60390.16;4886954;29;20135;-80
2023/03/09 08:46:29;;;;;;;5.28;3.00;;;;;;;-142.70;100.00;60390.16;4905258;29;20148;-83
2023/03/09 08:48:56;;;;;;;5.80;2.90;;;;;;;-142.70;100.00;60390.16;4872486;29;20036;-82
2023/03/09 08:51:22;;;;;;;5.53;3.08;;;;;;;-142.70;100.00;60390.16;4891919;29;20036;-82
2023/03/09 08:53:50;;;;;;;4.68;2.70;;;;;;;-142.70;100.00;60390.16;4896289;29;20060;-84
2023/03/09 08:56:16;;;;;;;4.00;2.83;;;;;;;-142.70;100.00;60390.16;4877460;29;20037;-81
2023/03/09 08:58:45;;;;;;;6.07;2.63;;;;;;;-142.70;100.00;60390.16;4894894;29;20300;-80
2023/03/09 09:01:11;;;;;;;3.53;2.72;;;;;;;-142.70;100.00;60390.16;4887288;29;20024;-81
2023/03/09 09:03:38;;;;;;;4.13;2.95;;;;;;;-142.70;100.00;60390.16;4887681;29;20031;-80
2023/03/09 09:06:12;;;;;;;3.00;2.40;;;;;;;-142.70;100.00;60390.16;4902924;29;20035;-80
2023/03/09 09:08:38;;;;;;;4.88;2.75;;;;;;;-142.70;100.00;60390.16;4902944;29;20032;-82
2023/03/09 09:11:12;;;;;;;4.22;2.85;;;;;;;-142.70;100.00;60390.16;4887137;29;20825;-81
2023/03/09 09:13:38;;;;;;;3.30;2.70;;;;;;;-142.70;100.00;60390.16;4886818;29;20032;-82
2023/03/09 09:16:07;;;;;;;4.25;3.28;;;;;;;-142.70;100.00;60390.16;4885986;29;20039;-82
2023/03/09 09:18:36;;;;;;;4.95;2.92;;;;;;;-142.70;100.00;60390.16;4896304;29;20028;-82
2023/03/09 09:24:32;;;;;;;4.10;3.50;;;;;;;-142.70;100.00;60390.16;4891379;29;20048;-80
2023/03/09 09:26:58;;;;;;;4.60;3.63;;;;;;;-142.70;100.00;60390.16;4886803;29;20107;-79
2023/03/09 09:29:23;;;;;;;3.92;3.40;;;;;;;-142.70;100.00;60390.16;4893654;29;20069;-78
2023/03/09 09:31:49;;;;;;;10.30;3.50;;;;;;;-142.70;100.00;60390.16;4886236;29;20079;-77
2023/03/09 09:34:17;;;;;;;5.93;3.35;;;;;;;-142.70;100.00;60390.16;4884171;29;20127;-77
2023/03/09 09:36:43;;;;;;;6.15;3.50;;;;;;;-142.70;100.00;60390.16;4883279;29;20122;-76
2023/03/09 09:39:37;;;;;;;9.02;3.10;;;;;;;-142.70;100.00;60390.16;4887453;29;20144;-77
2023/03/09 09:43:05;;;;;;;5.25;4.13;;;;;;;-142.70;100.00;60390.16;4880637;29;20183;-81
2023/03/09 09:45:59;;;;;;;5.20;3.50;;;;;;;-142.70;100.00;60390.16;4833760;29;20054;-78
2023/03/09 09:48:25;;;;;;;5.38;3.05;;;;;;;-142.70;100.00;60390.16;4811251;29;20038;-78
2023/03/09 09:51:22;;;;;;;8.00;3.63;;;;;;;-142.70;100.00;60390.16;4867592;29;20047;-77
2023/03/09 09:54:11;;;;;;;5.07;3.08;;;;;;;-142.70;100.00;60390.16;4900893;29;20036;-83
2023/03/09 10:06:42;;;;;;;4.20;2.97;;;;;;;-142.70;100.00;60390.16;4887407;29;20059;-84
2023/03/09 10:13:17;;;;;;;5.38;3.35;;;;;;;-142.70;100.00;60390.16;4798325;29;20049;-87
2023/03/09 10:15:42;;;;;;;3.75;2.90;;;;;;;-142.70;100.00;60390.16;4871546;29;20663;-86
2023/03/09 10:18:13;;;;;;;3.85;2.60;;;;;;;-142.70;100.00;60390.16;4885649;29;20091;-84
2023/03/09 10:20:49;;;;;;;4.68;2.42;;;;;;;-142.70;100.00;60390.16;4880499;29;20025;-83
2023/03/09 10:26:42;;;;;;;2.50;1.88;;;;;;;-142.70;100.00;60390.16;4892339;29;20046;-82
2023/03/09 10:29:34;;;;;;;4.63;3.20;;;;;;;-142.70;100.00;60390.16;4879388;29;20033;-84
2023/03/09 10:32:05;;;;;;;2.85;2.25;;;;;;;-142.70;100.00;60390.16;4896155;29;20104;-84
2023/03/09 10:34:39;;;;;;;6.97;3.03;;;;;;;-142.70;100.00;60390.16;4882497;29;20074;-82
2023/03/09 10:37:16;;;;;;;3.63;2.60;;;;;;;-142.70;100.00;60390.16;4883233;29;20546;-85
2023/03/09 10:40:04;;;;;;;2.58;2.15;;;;;;;-142.70;100.00;60390.16;4893833;29;20039;-84
2023/03/09 10:42:36;;;;;;;2.90;2.17;;;;;;;-142.70;100.00;60390.16;4889186;29;20032;-84
2023/03/09 10:45:25;;;;;;;2.85;2.05;;;;;;;-142.70;100.00;60390.16;4885210;29;20425;-85
2023/03/09 10:51:45;;;;;;;4.15;2.40;;;;;;;-142.70;100.00;60390.16;4889019;29;20051;-85
2023/03/09 10:54:20;;;;;;;2.65;2.17;;;;;;;-142.70;100.00;60390.16;4880905;29;20032;-85
2023/03/09 10:56:48;;;;;;;4.25;2.60;;;;;;;-142.70;100.00;60390.16;4894512;29;20055;-84
2023/03/09 10:59:31;;;;;;;5.22;2.83;;;;;;;-142.70;100.00;60390.16;4886012;29;20036;-87
2023/03/09 11:02:35;;;;;;;4.05;3.15;;;;;;;-142.70;100.00;60390.16;4884595;29;20104;-86
2023/03/09 11:05:17;;;;;;;4.72;2.33;;;;;;;-142.70;100.00;60390.16;4877895;29;20589;-82
2023/03/09 11:07:49;;;;;;;2.97;2.10;;;;;;;-142.70;100.00;60390.16;4872304;29;20491;-84
2023/03/09 11:10:34;;;;;;;5.00;2.05;;;;;;;-142.70;100.00;60390.16;4885237;29;20402;-83
2023/03/09 11:13:02;;;;;;;3.28;2.78;;;;;;;-142.70;100.00;60390.16;4884823;29;20036;-84
2023/03/09 11:15:37;;;;;;;3.47;1.60;;;;;;;-142.70;100.00;60390.16;4885108;29;20043;-83
2023/03/09 11:18:27;;;;;;;2.28;1.38;;;;;;;-142.70;100.00;60390.16;4886571;29;20435;-84
2023/03/09 11:27:38;;;;;;;3.10;1.35;;;;;;;-142.70;100.00;60390.16;4887590;29;20805;-82
2023/03/09 11:30:17;;;;;;;2.15;1.30;;;;;;;-142.70;100.00;60390.16;4850090;29;20036;-82
2023/03/09 11:32:42;;;;;;;1.58;1.40;;;;;;;-142.70;100.00;60390.16;4845313;29;20048;-82
2023/03/09 11:35:47;;;;;;;1.45;1.30;;;;;;;-142.70;100.00;60390.16;4866697;29;20467;-84
2023/03/09 11:38:16;;;;;;;2.28;1.20;;;;;;;-142.70;100.00;60390.16;4881871;29;20056;-84
2023/03/09 11:41:06;;;;;;;1.60;0.90;;;;;;;-142.70;100.00;60390.16;4841852;29;20525;-82
2023/03/09 11:43:38;;;;;;;2.28;1.20;;;;;;;-142.70;100.00;60390.16;4829245;29;20064;-84
2023/03/09 11:46:06;;;;;;;3.38;1.40;;;;;;;-142.70;100.00;60390.16;4841789;29;20036;-81
2023/03/09 11:48:38;;;;;;;4.33;1.40;;;;;;;-142.70;100.00;60390.16;4849843;29;20665;-83
2023/03/09 11:51:28;;;;;;;1.40;1.00;;;;;;;-142.70;100.00;60390.16;4865981;29;20534;-82
2023/03/09 11:54:42;;;;;;;5.53;1.20;;;;;;;-142.70;100.00;60390.16;4851012;29;20044;-84
2023/03/09 11:57:15;;;;;;;2.70;1.08;;;;;;;-142.70;100.00;60390.16;4873012;29;20570;-84
2023/03/09 11:59:56;;;;;;;1.70;0.98;;;;;;;-142.70;100.00;60390.16;4851821;29;20169;-82
2023/03/09 12:02:55;;;;;;;1.75;1.10;;;;;;;-142.70;100.00;60390.16;4902410;29;20115;-83
2023/03/09 12:05:22;;;;;;;3.72;1.27;;;;;;;-142.70;100.00;60390.16;4884774;29;20105;-82
2023/03/09 12:07:54;;;;;;;2.25;1.08;;;;;;;-142.70;100.00;60390.16;4886370;29;20325;-83
2023/03/09 12:10:28;;;;;;;5.03;2.00;;;;;;;-142.70;100.00;60390.16;4903552;29;20351;-82
2023/03/09 12:13:11;;;;;;;5.35;1.40;;;;;;;-142.70;100.00;60390.16;4885975;29;20484;-83
2023/03/09 12:15:40;;;;;;;2.40;1.00;;;;;;;-142.70;100.00;60390.16;4886459;29;20028;-82
2023/03/09 12:18:07;;;;;;;1.45;1.17;;;;;;;-142.70;100.00;60390.16;4902008;29;20487;-82
2023/03/09 12:20:59;;;;;;;1.45;0.95;;;;;;;-142.70;100.00;60390.16;4886040;29;20363;-84
2023/03/09 12:24:19;;;;;;;1.60;0.95;;;;;;;-142.70;100.00;60390.16;4898541;29;20079;-82
2023/03/09 12:26:44;;;;;;;3.67;1.00;;;;;;;-142.70;100.00;60390.16;4899570;29;20430;-83
2023/03/09 12:29:15;;;;;;;2.17;1.30;;;;;;;-142.70;100.00;60390.16;4887471;29;20020;-80
2023/03/09 12:31:44;;;;;;;2.15;1.20;;;;;;;-142.70;100.00;60390.16;4905047;29;20044;-84
2023/03/09 12:34:09;;;;;;;4.13;1.90;;;;;;;-142.70;100.00;60390.16;4872779;29;20040;-83
2023/03/09 12:36:37;;;;;;;3.13;1.40;;;;;;;-142.70;100.00;60390.16;4905425;29;20038;-86
2023/03/09 12:39:33;;;;;;;2.47;1.10;;;;;;;-142.70;100.00;60390.16;4888055;29;20039;-84
2023/03/09 12:42:10;;;;;;;2.50;1.10;;;;;;;-142.70;100.00;60390.16;4905020;29;20058;-84
2023/03/09 12:44:51;;;;;;;1.25;1.15;;;;;;;-142.70;100.00;60390.16;4903948;29;20684;-84
2023/03/09 12:47:21;;;;;;;1.48;1.00;;;;;;;-142.70;100.00;60390.16;4904199;29;20169;-85
2023/03/09 12:50:01;;;;;;;2.25;1.17;;;;;;;-142.70;100.00;60390.16;4884980;29;20535;-86
2023/03/09 12:53:06;;;;;;;4.13;3.50;;;;;;;-142.70;100.00;60390.16;4881952;29;20061;-83
2023/03/09 12:55:53;;;;;;;2.95;2.10;;;;;;;-142.70;100.00;60390.16;4896002;29;20111;-85
2023/03/09 12:58:21;;;;;;;5.63;2.95;;;;;;;-142.70;100.00;60390.16;4883132;29;20642;-89
2023/03/09 13:01:11;;;;;;;1.60;1.50;;;;;;;-142.70;100.00;60390.16;4888686;29;20566;-83